sensor_id;sensor_type;location;lat;lon;timestamp;temperature;humidity
11089;DHT22;5598;48.648;8.908;2024-03-29T00:01:48;4.70;94.70
11089;DHT22;5598;48.648;8.908;2024-03-29T00:04:14;4.60;94.70
11089;DHT22;5598;48.648;8.908;2024-03-29T00:06:40;4.60;94.80
11089;DHT22;5598;48.648;8.908;2024-03-29T00:09:05;4.60;95.00
11089;DHT22;5598;48.648;8.908;2024-03-29T00:11:31;4.60;95.00
11089;DHT22;5598;48.648;8.908;2024-03-29T00:13:57;4.60;95.20
11089;DHT22;5598;48.648;8.908;2024-03-29T00:16:24;4.50;95.10
11089;DHT22;5598;48.648;8.908;2024-03-29T00:18:50;4.60;95.20
11089;DHT22;5598;48.648;8.908;2024-03-29T00:21:16;4.50;95.10
11089;DHT22;5598;48.648;8.908;2024-03-29T00:23:42;4.50;95.10
11089;DHT22;5598;48.648;8.908;2024-03-29T00:26:08;4.50;94.90
11089;DHT22;5598;48.648;8.908;2024-03-29T00:28:34;4.50;94.90
11089;DHT22;5598;48.648;8.908;2024-03-29T00:31:00;4.50;94.90
11089;DHT22;5598;48.648;8.908;2024-03-29T00:33:27;4.40;94.90
11089;DHT22;5598;48.648;8.908;2024-03-29T00:35:53;4.40;95.00
11089;DHT22;5598;48.648;8.908;2024-03-29T00:38:19;4.40;95.10
11089;DHT22;5598;48.648;8.908;2024-03-29T00:40:45;4.30;95.30
11089;DHT22;5598;48.648;8.908;2024-03-29T00:43:10;4.20;95.30
11089;DHT22;5598;48.648;8.908;2024-03-29T00:45:36;4.20;95.30
11089;DHT22;5598;48.648;8.908;2024-03-29T00:48:03;4.10;95.50
11089;DHT22;5598;48.648;8.908;2024-03-29T00:50:30;4.10;95.70
11089;DHT22;5598;48.648;8.908;2024-03-29T00:52:56;4.00;95.60
11089;DHT22;5598;48.648;8.908;2024-03-29T00:55:22;3.90;95.90
11089;DHT22;5598;48.648;8.908;2024-03-29T00:57:48;3.90;96.20
11089;DHT22;5598;48.648;8.908;2024-03-29T01:00:14;3.90;96.40
11089;DHT22;5598;48.648;8.908;2024-03-29T01:02:40;3.80;96.50
11089;DHT22;5598;48.648;8.908;2024-03-29T01:05:06;3.80;96.50
11089;DHT22;5598;48.648;8.908;2024-03-29T01:07:34;3.80;96.50
11089;DHT22;5598;48.648;8.908;2024-03-29T01:10:00;3.80;96.40
11089;DHT22;5598;48.648;8.908;2024-03-29T01:12:26;3.90;96.40
11089;DHT22;5598;48.648;8.908;2024-03-29T01:14:52;3.90;96.30
11089;DHT22;5598;48.648;8.908;2024-03-29T01:17:18;3.90;96.20
11089;DHT22;5598;48.648;8.908;2024-03-29T01:19:44;3.80;96.30
11089;DHT22;5598;48.648;8.908;2024-03-29T01:22:09;3.80;96.50
11089;DHT22;5598;48.648;8.908;2024-03-29T01:24:37;3.80;96.40
11089;DHT22;5598;48.648;8.908;2024-03-29T01:27:03;3.90;96.50
11089;DHT22;5598;48.648;8.908;2024-03-29T01:29:29;3.90;96.50
11089;DHT22;5598;48.648;8.908;2024-03-29T01:31:55;3.80;96.50
11089;DHT22;5598;48.648;8.908;2024-03-29T01:34:21;3.90;96.50
11089;DHT22;5598;48.648;8.908;2024-03-29T01:36:47;3.90;96.70
11089;DHT22;5598;48.648;8.908;2024-03-29T01:39:13;4.00;96.60
11089;DHT22;5598;48.648;8.908;2024-03-29T01:41:40;4.00;96.60
11089;DHT22;5598;48.648;8.908;2024-03-29T01:44:06;4.10;96.60
11089;DHT22;5598;48.648;8.908;2024-03-29T01:46:35;4.10;96.60
11089;DHT22;5598;48.648;8.908;2024-03-29T01:49:03;4.10;96.60
11089;DHT22;5598;48.648;8.908;2024-03-29T01:51:30;4.10;96.70
11089;DHT22;5598;48.648;8.908;2024-03-29T01:53:58;4.00;96.90
11089;DHT22;5598;48.648;8.908;2024-03-29T01:56:26;4.00;97.10
11089;DHT22;5598;48.648;8.908;2024-03-29T01:58:55;3.90;97.30
11089;DHT22;5598;48.648;8.908;2024-03-29T02:01:24;4.10;97.20
11089;DHT22;5598;48.648;8.908;2024-03-29T02:03:52;4.10;97.10
11089;DHT22;5598;48.648;8.908;2024-03-29T02:06:20;4.20;97.10
11089;DHT22;5598;48.648;8.908;2024-03-29T02:08:49;4.20;96.80
11089;DHT22;5598;48.648;8.908;2024-03-29T02:11:18;4.20;96.70
11089;DHT22;5598;48.648;8.908;2024-03-29T02:13:46;4.30;96.60
11089;DHT22;5598;48.648;8.908;2024-03-29T02:16:13;4.30;96.60
11089;DHT22;5598;48.648;8.908;2024-03-29T02:18:40;4.40;96.50
11089;DHT22;5598;48.648;8.908;2024-03-29T02:21:07;4.40;96.60
11089;DHT22;5598;48.648;8.908;2024-03-29T02:23:37;4.30;96.70
11089;DHT22;5598;48.648;8.908;2024-03-29T02:26:05;4.20;96.90
11089;DHT22;5598;48.648;8.908;2024-03-29T02:28:32;4.10;97.00
11089;DHT22;5598;48.648;8.908;2024-03-29T02:30:59;4.00;97.10
11089;DHT22;5598;48.648;8.908;2024-03-29T02:33:26;4.10;97.30
11089;DHT22;5598;48.648;8.908;2024-03-29T02:35:52;4.10;97.50
11089;DHT22;5598;48.648;8.908;2024-03-29T02:38:19;4.10;97.30
11089;DHT22;5598;48.648;8.908;2024-03-29T02:40:46;4.20;97.30
11089;DHT22;5598;48.648;8.908;2024-03-29T02:43:14;4.20;97.40
11089;DHT22;5598;48.648;8.908;2024-03-29T02:45:41;4.20;97.40
11089;DHT22;5598;48.648;8.908;2024-03-29T02:48:08;4.30;97.50
11089;DHT22;5598;48.648;8.908;2024-03-29T02:50:34;4.30;97.70
11089;DHT22;5598;48.648;8.908;2024-03-29T02:53:00;4.40;97.40
11089;DHT22;5598;48.648;8.908;2024-03-29T02:55:27;4.30;97.50
11089;DHT22;5598;48.648;8.908;2024-03-29T02:57:53;4.40;97.50
11089;DHT22;5598;48.648;8.908;2024-03-29T03:00:21;4.40;97.50
11089;DHT22;5598;48.648;8.908;2024-03-29T03:02:47;4.40;97.70
11089;DHT22;5598;48.648;8.908;2024-03-29T03:05:14;4.50;97.60
11089;DHT22;5598;48.648;8.908;2024-03-29T03:07:40;4.50;97.60
11089;DHT22;5598;48.648;8.908;2024-03-29T03:10:24;4.60;97.50
11089;DHT22;5598;48.648;8.908;2024-03-29T03:13:08;4.60;97.50
11089;DHT22;5598;48.648;8.908;2024-03-29T03:15:36;4.60;97.50
11089;DHT22;5598;48.648;8.908;2024-03-29T03:18:03;4.50;97.50
11089;DHT22;5598;48.648;8.908;2024-03-29T03:20:29;4.50;97.50
11089;DHT22;5598;48.648;8.908;2024-03-29T03:22:56;4.50;97.70
11089;DHT22;5598;48.648;8.908;2024-03-29T03:25:23;4.50;97.80
11089;DHT22;5598;48.648;8.908;2024-03-29T03:27:48;4.50;97.90
11089;DHT22;5598;48.648;8.908;2024-03-29T03:30:15;4.60;98.10
11089;DHT22;5598;48.648;8.908;2024-03-29T03:32:42;4.60;98.20
11089;DHT22;5598;48.648;8.908;2024-03-29T03:35:09;4.60;98.70
11089;DHT22;5598;48.648;8.908;2024-03-29T03:37:35;4.70;98.20
11089;DHT22;5598;48.648;8.908;2024-03-29T03:40:02;4.70;98.30
11089;DHT22;5598;48.648;8.908;2024-03-29T03:42:29;4.80;98.50
11089;DHT22;5598;48.648;8.908;2024-03-29T03:44:56;4.90;98.50
11089;DHT22;5598;48.648;8.908;2024-03-29T03:47:22;5.00;98.80
11089;DHT22;5598;48.648;8.908;2024-03-29T03:49:50;4.90;98.80
11089;DHT22;5598;48.648;8.908;2024-03-29T03:52:16;4.80;99.10
11089;DHT22;5598;48.648;8.908;2024-03-29T03:54:42;4.90;98.80
11089;DHT22;5598;48.648;8.908;2024-03-29T03:57:09;4.80;98.40
11089;DHT22;5598;48.648;8.908;2024-03-29T03:59:35;4.70;98.50
11089;DHT22;5598;48.648;8.908;2024-03-29T04:02:02;4.60;98.70
11089;DHT22;5598;48.648;8.908;2024-03-29T04:04:27;4.60;99.00
11089;DHT22;5598;48.648;8.908;2024-03-29T04:06:56;4.60;99.10
11089;DHT22;5598;48.648;8.908;2024-03-29T04:09:22;4.60;98.90
11089;DHT22;5598;48.648;8.908;2024-03-29T04:11:48;4.60;98.80
11089;DHT22;5598;48.648;8.908;2024-03-29T04:14:14;4.60;98.90
11089;DHT22;5598;48.648;8.908;2024-03-29T04:16:41;4.70;99.00
11089;DHT22;5598;48.648;8.908;2024-03-29T04:19:07;4.70;98.80
11089;DHT22;5598;48.648;8.908;2024-03-29T04:21:33;4.70;98.90
11089;DHT22;5598;48.648;8.908;2024-03-29T04:24:00;4.70;98.90
11089;DHT22;5598;48.648;8.908;2024-03-29T04:26:27;4.80;98.90
11089;DHT22;5598;48.648;8.908;2024-03-29T04:28:53;4.80;98.90
11089;DHT22;5598;48.648;8.908;2024-03-29T04:31:20;4.80;98.90
11089;DHT22;5598;48.648;8.908;2024-03-29T04:33:45;4.90;99.10
11089;DHT22;5598;48.648;8.908;2024-03-29T04:36:12;5.00;99.20
11089;DHT22;5598;48.648;8.908;2024-03-29T04:38:38;5.00;99.20
11089;DHT22;5598;48.648;8.908;2024-03-29T04:41:06;5.10;99.20
11089;DHT22;5598;48.648;8.908;2024-03-29T04:43:33;5.10;99.60
11089;DHT22;5598;48.648;8.908;2024-03-29T04:46:03;5.10;99.80
11089;DHT22;5598;48.648;8.908;2024-03-29T04:48:30;5.30;99.60
11089;DHT22;5598;48.648;8.908;2024-03-29T04:50:57;5.30;99.30
11089;DHT22;5598;48.648;8.908;2024-03-29T04:53:24;5.30;99.30
11089;DHT22;5598;48.648;8.908;2024-03-29T04:55:53;5.30;99.20
11089;DHT22;5598;48.648;8.908;2024-03-29T04:58:22;5.30;98.90
11089;DHT22;5598;48.648;8.908;2024-03-29T05:00:49;5.40;98.70
11089;DHT22;5598;48.648;8.908;2024-03-29T05:03:17;5.40;98.80
11089;DHT22;5598;48.648;8.908;2024-03-29T05:05:43;5.40;98.90
11089;DHT22;5598;48.648;8.908;2024-03-29T05:08:10;5.40;99.10
11089;DHT22;5598;48.648;8.908;2024-03-29T05:10:38;5.40;98.80
11089;DHT22;5598;48.648;8.908;2024-03-29T05:13:05;5.50;98.80
11089;DHT22;5598;48.648;8.908;2024-03-29T05:15:33;5.50;98.90
11089;DHT22;5598;48.648;8.908;2024-03-29T05:18:00;5.40;98.70
11089;DHT22;5598;48.648;8.908;2024-03-29T05:20:27;5.40;98.90
11089;DHT22;5598;48.648;8.908;2024-03-29T05:22:54;5.40;98.90
11089;DHT22;5598;48.648;8.908;2024-03-29T05:25:21;5.40;99.10
11089;DHT22;5598;48.648;8.908;2024-03-29T05:27:49;5.40;99.20
11089;DHT22;5598;48.648;8.908;2024-03-29T05:30:15;5.40;99.00
11089;DHT22;5598;48.648;8.908;2024-03-29T05:32:45;5.40;98.60
11089;DHT22;5598;48.648;8.908;2024-03-29T05:35:12;5.50;98.50
11089;DHT22;5598;48.648;8.908;2024-03-29T05:37:39;5.60;98.20
11089;DHT22;5598;48.648;8.908;2024-03-29T05:40:07;5.60;97.80
11089;DHT22;5598;48.648;8.908;2024-03-29T05:42:34;5.60;97.60
11089;DHT22;5598;48.648;8.908;2024-03-29T05:45:03;5.60;97.60
11089;DHT22;5598;48.648;8.908;2024-03-29T05:47:31;5.70;96.90
11089;DHT22;5598;48.648;8.908;2024-03-29T05:49:59;5.70;96.70
11089;DHT22;5598;48.648;8.908;2024-03-29T05:52:26;5.80;96.60
11089;DHT22;5598;48.648;8.908;2024-03-29T05:54:52;5.90;96.60
11089;DHT22;5598;48.648;8.908;2024-03-29T06:00:41;6.00;96.30
11089;DHT22;5598;48.648;8.908;2024-03-29T06:03:08;6.00;96.10
11089;DHT22;5598;48.648;8.908;2024-03-29T06:05:36;6.10;95.90
11089;DHT22;5598;48.648;8.908;2024-03-29T06:08:04;6.10;96.10
11089;DHT22;5598;48.648;8.908;2024-03-29T06:10:31;6.30;96.20
11089;DHT22;5598;48.648;8.908;2024-03-29T06:12:57;6.30;95.90
11089;DHT22;5598;48.648;8.908;2024-03-29T06:15:32;6.40;95.60
11089;DHT22;5598;48.648;8.908;2024-03-29T06:18:16;6.50;95.50
11089;DHT22;5598;48.648;8.908;2024-03-29T06:20:46;6.50;95.60
11089;DHT22;5598;48.648;8.908;2024-03-29T06:23:12;6.60;95.60
11089;DHT22;5598;48.648;8.908;2024-03-29T06:25:40;6.50;95.40
11089;DHT22;5598;48.648;8.908;2024-03-29T06:28:06;6.60;95.20
11089;DHT22;5598;48.648;8.908;2024-03-29T06:30:33;6.60;95.20
11089;DHT22;5598;48.648;8.908;2024-03-29T06:33:00;6.60;94.80
11089;DHT22;5598;48.648;8.908;2024-03-29T06:35:28;6.70;94.60
11089;DHT22;5598;48.648;8.908;2024-03-29T06:37:57;6.80;94.80
11089;DHT22;5598;48.648;8.908;2024-03-29T06:40:24;6.90;93.90
11089;DHT22;5598;48.648;8.908;2024-03-29T06:42:51;6.90;93.80
11089;DHT22;5598;48.648;8.908;2024-03-29T06:45:18;6.90;94.00
11089;DHT22;5598;48.648;8.908;2024-03-29T06:47:45;6.90;94.30
11089;DHT22;5598;48.648;8.908;2024-03-29T06:50:12;6.90;94.00
11089;DHT22;5598;48.648;8.908;2024-03-29T06:52:38;6.90;94.80
11089;DHT22;5598;48.648;8.908;2024-03-29T06:55:07;6.80;94.30
11089;DHT22;5598;48.648;8.908;2024-03-29T06:57:35;6.90;93.90
11089;DHT22;5598;48.648;8.908;2024-03-29T07:00:03;6.90;94.10
11089;DHT22;5598;48.648;8.908;2024-03-29T07:02:29;7.00;93.80
11089;DHT22;5598;48.648;8.908;2024-03-29T07:04:56;7.00;93.40
11089;DHT22;5598;48.648;8.908;2024-03-29T07:07:23;7.10;93.20
11089;DHT22;5598;48.648;8.908;2024-03-29T07:09:50;7.10;93.60
11089;DHT22;5598;48.648;8.908;2024-03-29T07:12:18;7.10;94.70
11089;DHT22;5598;48.648;8.908;2024-03-29T07:14:44;7.10;94.70
11089;DHT22;5598;48.648;8.908;2024-03-29T07:17:11;7.10;94.60
11089;DHT22;5598;48.648;8.908;2024-03-29T07:19:38;7.10;95.40
11089;DHT22;5598;48.648;8.908;2024-03-29T07:22:05;7.10;97.70
11089;DHT22;5598;48.648;8.908;2024-03-29T07:24:32;7.00;99.90
11089;DHT22;5598;48.648;8.908;2024-03-29T07:26:58;6.90;99.90
11089;DHT22;5598;48.648;8.908;2024-03-29T07:29:27;6.90;99.90
11089;DHT22;5598;48.648;8.908;2024-03-29T07:31:53;6.80;99.90
11089;DHT22;5598;48.648;8.908;2024-03-29T07:34:20;6.70;99.90
11089;DHT22;5598;48.648;8.908;2024-03-29T07:36:47;6.70;99.90
11089;DHT22;5598;48.648;8.908;2024-03-29T07:39:13;6.60;99.90
11089;DHT22;5598;48.648;8.908;2024-03-29T07:41:39;6.50;99.90
11089;DHT22;5598;48.648;8.908;2024-03-29T07:44:06;6.50;99.90
11089;DHT22;5598;48.648;8.908;2024-03-29T07:46:36;6.50;99.90
11089;DHT22;5598;48.648;8.908;2024-03-29T07:49:03;6.50;99.90
11089;DHT22;5598;48.648;8.908;2024-03-29T07:51:30;6.40;99.90
11089;DHT22;5598;48.648;8.908;2024-03-29T07:53:57;6.40;99.90
11089;DHT22;5598;48.648;8.908;2024-03-29T07:56:24;6.40;99.90
11089;DHT22;5598;48.648;8.908;2024-03-29T07:58:51;6.40;99.90
11089;DHT22;5598;48.648;8.908;2024-03-29T08:01:19;6.50;99.90
11089;DHT22;5598;48.648;8.908;2024-03-29T08:03:50;6.50;99.90
11089;DHT22;5598;48.648;8.908;2024-03-29T08:06:17;6.40;99.90
11089;DHT22;5598;48.648;8.908;2024-03-29T08:08:45;6.40;99.90
11089;DHT22;5598;48.648;8.908;2024-03-29T08:11:12;6.40;99.90
11089;DHT22;5598;48.648;8.908;2024-03-29T08:13:40;6.30;99.90
11089;DHT22;5598;48.648;8.908;2024-03-29T08:16:07;6.40;99.90
11089;DHT22;5598;48.648;8.908;2024-03-29T08:18:34;6.30;99.90
11089;DHT22;5598;48.648;8.908;2024-03-29T08:21:02;6.30;99.90
11089;DHT22;5598;48.648;8.908;2024-03-29T08:23:31;6.30;99.90
11089;DHT22;5598;48.648;8.908;2024-03-29T08:25:57;6.40;99.90
11089;DHT22;5598;48.648;8.908;2024-03-29T08:28:25;6.40;99.90
11089;DHT22;5598;48.648;8.908;2024-03-29T08:31:02;6.40;99.90
11089;DHT22;5598;48.648;8.908;2024-03-29T08:33:29;6.40;99.90
11089;DHT22;5598;48.648;8.908;2024-03-29T08:35:57;6.40;99.90
11089;DHT22;5598;48.648;8.908;2024-03-29T08:38:25;6.40;99.90
11089;DHT22;5598;48.648;8.908;2024-03-29T08:40:52;6.50;99.90
11089;DHT22;5598;48.648;8.908;2024-03-29T08:43:19;6.50;99.90
11089;DHT22;5598;48.648;8.908;2024-03-29T08:45:46;6.50;99.90
11089;DHT22;5598;48.648;8.908;2024-03-29T08:48:14;6.60;99.90
11089;DHT22;5598;48.648;8.908;2024-03-29T08:50:41;6.60;99.90
11089;DHT22;5598;48.648;8.908;2024-03-29T08:53:08;6.60;99.90
11089;DHT22;5598;48.648;8.908;2024-03-29T08:55:36;6.60;99.90
11089;DHT22;5598;48.648;8.908;2024-03-29T08:58:05;6.70;99.90
11089;DHT22;5598;48.648;8.908;2024-03-29T09:00:32;6.80;99.90
11089;DHT22;5598;48.648;8.908;2024-03-29T09:02:59;6.80;99.90
11089;DHT22;5598;48.648;8.908;2024-03-29T09:05:26;6.90;99.90
11089;DHT22;5598;48.648;8.908;2024-03-29T09:07:54;7.10;99.90
11089;DHT22;5598;48.648;8.908;2024-03-29T09:10:22;7.10;99.90
11089;DHT22;5598;48.648;8.908;2024-03-29T09:12:50;7.10;99.90
11089;DHT22;5598;48.648;8.908;2024-03-29T09:15:17;7.10;99.90
11089;DHT22;5598;48.648;8.908;2024-03-29T09:17:44;7.20;99.90
11089;DHT22;5598;48.648;8.908;2024-03-29T09:20:12;7.30;99.90
11089;DHT22;5598;48.648;8.908;2024-03-29T09:22:39;7.40;99.90
11089;DHT22;5598;48.648;8.908;2024-03-29T09:25:06;7.40;99.90
11089;DHT22;5598;48.648;8.908;2024-03-29T09:27:34;7.50;99.90
11089;DHT22;5598;48.648;8.908;2024-03-29T09:30:04;7.50;99.90
11089;DHT22;5598;48.648;8.908;2024-03-29T09:32:32;7.60;99.90
11089;DHT22;5598;48.648;8.908;2024-03-29T09:34:59;7.70;99.90
11089;DHT22;5598;48.648;8.908;2024-03-29T09:37:26;7.70;99.90
11089;DHT22;5598;48.648;8.908;2024-03-29T09:39:53;7.70;99.90
11089;DHT22;5598;48.648;8.908;2024-03-29T09:42:22;7.80;99.90
11089;DHT22;5598;48.648;8.908;2024-03-29T09:44:51;7.90;99.90
11089;DHT22;5598;48.648;8.908;2024-03-29T09:47:21;8.00;99.90
11089;DHT22;5598;48.648;8.908;2024-03-29T09:49:49;8.10;99.90
11089;DHT22;5598;48.648;8.908;2024-03-29T09:52:17;8.10;99.90
11089;DHT22;5598;48.648;8.908;2024-03-29T09:54:45;8.20;99.90
11089;DHT22;5598;48.648;8.908;2024-03-29T09:57:12;8.20;99.90
11089;DHT22;5598;48.648;8.908;2024-03-29T09:59:39;8.30;99.90
11089;DHT22;5598;48.648;8.908;2024-03-29T10:02:14;8.40;99.90
11089;DHT22;5598;48.648;8.908;2024-03-29T10:04:44;8.50;99.90
11089;DHT22;5598;48.648;8.908;2024-03-29T10:07:12;8.70;99.90
11089;DHT22;5598;48.648;8.908;2024-03-29T10:09:41;8.80;99.90
11089;DHT22;5598;48.648;8.908;2024-03-29T10:12:08;8.90;99.90
11089;DHT22;5598;48.648;8.908;2024-03-29T10:14:44;9.30;99.90
11089;DHT22;5598;48.648;8.908;2024-03-29T10:17:15;9.60;99.90
11089;DHT22;5598;48.648;8.908;2024-03-29T10:19:44;9.80;99.90
11089;DHT22;5598;48.648;8.908;2024-03-29T10:22:11;9.90;99.90
11089;DHT22;5598;48.648;8.908;2024-03-29T10:24:38;9.90;99.90
11089;DHT22;5598;48.648;8.908;2024-03-29T10:27:05;10.00;99.90
11089;DHT22;5598;48.648;8.908;2024-03-29T10:29:32;10.00;99.90
11089;DHT22;5598;48.648;8.908;2024-03-29T10:32:00;10.10;99.90
11089;DHT22;5598;48.648;8.908;2024-03-29T10:34:27;10.30;99.90
11089;DHT22;5598;48.648;8.908;2024-03-29T10:37:01;10.60;99.90
11089;DHT22;5598;48.648;8.908;2024-03-29T10:39:29;10.80;99.90
11089;DHT22;5598;48.648;8.908;2024-03-29T10:41:57;10.90;99.90
11089;DHT22;5598;48.648;8.908;2024-03-29T10:44:25;11.10;99.90
11089;DHT22;5598;48.648;8.908;2024-03-29T10:46:53;11.30;99.90
11089;DHT22;5598;48.648;8.908;2024-03-29T10:49:23;11.40;99.90
11089;DHT22;5598;48.648;8.908;2024-03-29T10:51:50;11.60;99.90
11089;DHT22;5598;48.648;8.908;2024-03-29T10:54:20;11.90;99.90
11089;DHT22;5598;48.648;8.908;2024-03-29T10:56:47;12.10;99.90
11089;DHT22;5598;48.648;8.908;2024-03-29T10:59:22;12.20;99.90
11089;DHT22;5598;48.648;8.908;2024-03-29T11:01:55;12.30;99.90
11089;DHT22;5598;48.648;8.908;2024-03-29T11:04:24;12.30;99.90
11089;DHT22;5598;48.648;8.908;2024-03-29T11:06:55;12.30;99.90
11089;DHT22;5598;48.648;8.908;2024-03-29T11:09:28;12.40;99.90
11089;DHT22;5598;48.648;8.908;2024-03-29T11:11:58;12.40;99.90
11089;DHT22;5598;48.648;8.908;2024-03-29T11:14:31;12.40;99.90
11089;DHT22;5598;48.648;8.908;2024-03-29T11:17:03;12.50;99.90
11089;DHT22;5598;48.648;8.908;2024-03-29T11:19:31;12.70;99.90
11089;DHT22;5598;48.648;8.908;2024-03-29T11:21:58;12.90;99.90
11089;DHT22;5598;48.648;8.908;2024-03-29T11:24:26;13.20;99.90
11089;DHT22;5598;48.648;8.908;2024-03-29T11:26:54;13.30;99.90
11089;DHT22;5598;48.648;8.908;2024-03-29T11:29:22;13.30;99.90
11089;DHT22;5598;48.648;8.908;2024-03-29T11:31:56;13.40;99.90
11089;DHT22;5598;48.648;8.908;2024-03-29T11:34:23;13.40;99.90
11089;DHT22;5598;48.648;8.908;2024-03-29T11:36:50;13.50;99.90
11089;DHT22;5598;48.648;8.908;2024-03-29T11:39:21;13.50;99.90
11089;DHT22;5598;48.648;8.908;2024-03-29T11:41:50;13.40;99.90
11089;DHT22;5598;48.648;8.908;2024-03-29T11:44:17;13.40;99.90
11089;DHT22;5598;48.648;8.908;2024-03-29T11:46:44;13.40;99.90
11089;DHT22;5598;48.648;8.908;2024-03-29T11:49:12;13.30;99.90
11089;DHT22;5598;48.648;8.908;2024-03-29T11:51:41;13.20;99.90
11089;DHT22;5598;48.648;8.908;2024-03-29T11:54:08;13.30;99.90
11089;DHT22;5598;48.648;8.908;2024-03-29T11:56:35;13.30;98.10
11089;DHT22;5598;48.648;8.908;2024-03-29T11:59:03;13.30;99.80
11089;DHT22;5598;48.648;8.908;2024-03-29T12:01:32;13.30;98.80
11089;DHT22;5598;48.648;8.908;2024-03-29T12:03:59;13.30;99.90
11089;DHT22;5598;48.648;8.908;2024-03-29T12:06:26;13.30;99.90
11089;DHT22;5598;48.648;8.908;2024-03-29T12:08:53;13.40;99.90
11089;DHT22;5598;48.648;8.908;2024-03-29T12:11:21;13.30;99.90
11089;DHT22;5598;48.648;8.908;2024-03-29T12:13:49;13.30;99.90
11089;DHT22;5598;48.648;8.908;2024-03-29T12:16:17;13.30;99.90
11089;DHT22;5598;48.648;8.908;2024-03-29T12:18:46;13.40;99.90
11089;DHT22;5598;48.648;8.908;2024-03-29T12:21:14;13.40;99.90
11089;DHT22;5598;48.648;8.908;2024-03-29T12:23:47;13.40;99.90
11089;DHT22;5598;48.648;8.908;2024-03-29T12:26:13;13.50;99.90
11089;DHT22;5598;48.648;8.908;2024-03-29T12:28:40;13.60;99.90
11089;DHT22;5598;48.648;8.908;2024-03-29T12:31:09;13.70;99.90
11089;DHT22;5598;48.648;8.908;2024-03-29T12:33:37;13.70;99.90
11089;DHT22;5598;48.648;8.908;2024-03-29T12:36:05;13.80;99.90
11089;DHT22;5598;48.648;8.908;2024-03-29T12:38:32;13.90;99.90
11089;DHT22;5598;48.648;8.908;2024-03-29T12:40:59;14.10;99.90
11089;DHT22;5598;48.648;8.908;2024-03-29T12:43:26;14.20;98.70
11089;DHT22;5598;48.648;8.908;2024-03-29T12:45:53;14.20;99.70
11089;DHT22;5598;48.648;8.908;2024-03-29T12:48:21;14.30;99.70
11089;DHT22;5598;48.648;8.908;2024-03-29T12:50:50;14.30;99.90
11089;DHT22;5598;48.648;8.908;2024-03-29T12:53:17;14.40;98.60
11089;DHT22;5598;48.648;8.908;2024-03-29T12:55:47;14.60;99.40
11089;DHT22;5598;48.648;8.908;2024-03-29T12:58:15;14.70;99.40
11089;DHT22;5598;48.648;8.908;2024-03-29T13:00:44;14.80;98.60
11089;DHT22;5598;48.648;8.908;2024-03-29T13:03:11;15.00;98.00
11089;DHT22;5598;48.648;8.908;2024-03-29T13:05:39;15.20;98.30
11089;DHT22;5598;48.648;8.908;2024-03-29T13:08:10;15.30;97.10
11089;DHT22;5598;48.648;8.908;2024-03-29T13:10:37;15.40;96.50
11089;DHT22;5598;48.648;8.908;2024-03-29T13:13:05;15.50;95.00
11089;DHT22;5598;48.648;8.908;2024-03-29T13:15:33;15.70;95.70
11089;DHT22;5598;48.648;8.908;2024-03-29T13:18:00;15.90;95.70
11089;DHT22;5598;48.648;8.908;2024-03-29T13:20:27;16.00;95.10
11089;DHT22;5598;48.648;8.908;2024-03-29T13:22:54;16.00;95.10
11089;DHT22;5598;48.648;8.908;2024-03-29T13:25:22;16.10;92.80
11089;DHT22;5598;48.648;8.908;2024-03-29T13:27:50;16.20;94.90
11089;DHT22;5598;48.648;8.908;2024-03-29T13:30:20;16.40;95.70
11089;DHT22;5598;48.648;8.908;2024-03-29T13:32:47;16.60;94.50
11089;DHT22;5598;48.648;8.908;2024-03-29T13:35:14;16.70;95.50
11089;DHT22;5598;48.648;8.908;2024-03-29T13:37:42;16.80;92.40
11089;DHT22;5598;48.648;8.908;2024-03-29T13:40:12;16.90;92.60
11089;DHT22;5598;48.648;8.908;2024-03-29T13:42:40;16.90;92.40
11089;DHT22;5598;48.648;8.908;2024-03-29T13:45:08;17.00;92.20
11089;DHT22;5598;48.648;8.908;2024-03-29T13:47:36;17.00;92.40
11089;DHT22;5598;48.648;8.908;2024-03-29T13:50:04;17.00;93.00
11089;DHT22;5598;48.648;8.908;2024-03-29T13:52:31;17.10;92.20
11089;DHT22;5598;48.648;8.908;2024-03-29T13:54:59;17.20;91.70
11089;DHT22;5598;48.648;8.908;2024-03-29T13:57:26;17.20;91.90
11089;DHT22;5598;48.648;8.908;2024-03-29T13:59:54;17.30;90.80
11089;DHT22;5598;48.648;8.908;2024-03-29T14:02:21;17.30;90.20
11089;DHT22;5598;48.648;8.908;2024-03-29T14:04:48;17.30;88.50
11089;DHT22;5598;48.648;8.908;2024-03-29T14:07:15;17.30;90.30
11089;DHT22;5598;48.648;8.908;2024-03-29T14:09:43;17.30;90.50
11089;DHT22;5598;48.648;8.908;2024-03-29T14:12:10;17.30;90.60
11089;DHT22;5598;48.648;8.908;2024-03-29T14:14:37;17.30;90.90
11089;DHT22;5598;48.648;8.908;2024-03-29T14:17:06;17.40;91.40
11089;DHT22;5598;48.648;8.908;2024-03-29T14:19:34;17.50;91.70
11089;DHT22;5598;48.648;8.908;2024-03-29T14:22:01;17.70;91.90
11089;DHT22;5598;48.648;8.908;2024-03-29T14:24:29;17.90;91.60
11089;DHT22;5598;48.648;8.908;2024-03-29T14:26:57;18.10;91.50
11089;DHT22;5598;48.648;8.908;2024-03-29T14:29:24;18.20;91.40
11089;DHT22;5598;48.648;8.908;2024-03-29T14:31:51;18.30;90.50
11089;DHT22;5598;48.648;8.908;2024-03-29T14:34:21;18.30;90.90
11089;DHT22;5598;48.648;8.908;2024-03-29T14:36:48;18.40;91.50
11089;DHT22;5598;48.648;8.908;2024-03-29T14:39:15;18.40;90.80
11089;DHT22;5598;48.648;8.908;2024-03-29T14:41:44;18.50;90.00
11089;DHT22;5598;48.648;8.908;2024-03-29T14:44:12;18.60;90.00
11089;DHT22;5598;48.648;8.908;2024-03-29T14:46:39;18.70;90.20
11089;DHT22;5598;48.648;8.908;2024-03-29T14:49:06;18.70;88.20
11089;DHT22;5598;48.648;8.908;2024-03-29T14:51:37;18.70;88.60
11089;DHT22;5598;48.648;8.908;2024-03-29T14:54:04;18.70;90.20
11089;DHT22;5598;48.648;8.908;2024-03-29T14:56:32;18.60;91.10
11089;DHT22;5598;48.648;8.908;2024-03-29T14:59:00;18.60;89.90
11089;DHT22;5598;48.648;8.908;2024-03-29T15:01:27;18.60;91.00
11089;DHT22;5598;48.648;8.908;2024-03-29T15:03:54;18.60;90.20
11089;DHT22;5598;48.648;8.908;2024-03-29T15:06:21;18.60;90.20
11089;DHT22;5598;48.648;8.908;2024-03-29T15:08:52;18.60;90.50
11089;DHT22;5598;48.648;8.908;2024-03-29T15:11:19;18.60;90.90
11089;DHT22;5598;48.648;8.908;2024-03-29T15:13:47;18.60;90.90
11089;DHT22;5598;48.648;8.908;2024-03-29T15:16:16;18.60;91.10
11089;DHT22;5598;48.648;8.908;2024-03-29T15:18:43;18.50;91.50
11089;DHT22;5598;48.648;8.908;2024-03-29T15:21:10;18.50;90.40
11089;DHT22;5598;48.648;8.908;2024-03-29T15:23:37;18.50;90.80
11089;DHT22;5598;48.648;8.908;2024-03-29T15:26:05;18.50;91.10
11089;DHT22;5598;48.648;8.908;2024-03-29T15:28:32;18.50;90.60
11089;DHT22;5598;48.648;8.908;2024-03-29T15:31:14;18.40;90.80
11089;DHT22;5598;48.648;8.908;2024-03-29T15:33:42;18.40;91.10
11089;DHT22;5598;48.648;8.908;2024-03-29T15:36:09;18.30;91.20
11089;DHT22;5598;48.648;8.908;2024-03-29T15:38:36;18.30;91.50
11089;DHT22;5598;48.648;8.908;2024-03-29T15:41:05;18.20;91.20
11089;DHT22;5598;48.648;8.908;2024-03-29T15:43:32;18.10;91.40
11089;DHT22;5598;48.648;8.908;2024-03-29T15:46:01;18.00;91.70
11089;DHT22;5598;48.648;8.908;2024-03-29T15:48:28;17.90;91.50
11089;DHT22;5598;48.648;8.908;2024-03-29T15:50:55;17.80;90.60
11089;DHT22;5598;48.648;8.908;2024-03-29T15:53:22;17.70;90.60
11089;DHT22;5598;48.648;8.908;2024-03-29T15:55:49;17.60;90.60
11089;DHT22;5598;48.648;8.908;2024-03-29T15:58:18;17.60;90.80
11089;DHT22;5598;48.648;8.908;2024-03-29T16:00:45;17.50;91.30
11089;DHT22;5598;48.648;8.908;2024-03-29T16:03:13;17.30;91.60